createdAt,value
2022-08-07T00:00:18.602Z,70.92
2022-08-07T00:00:50.344Z,71.18
2022-08-07T00:02:37.561Z,70.99
2022-08-07T00:02:39.816Z,71.07
2022-08-07T00:03:06.064Z,70.91
2022-08-07T00:03:40.385Z,70.56
2022-08-07T00:04:24.658Z,71.17
2022-08-07T00:04:56.253Z,70.77
2022-08-07T00:05:28.143Z,71.43
2022-08-07T00:06:01.955Z,71.33
2022-08-07T00:06:34.315Z,70.78
2022-08-07T00:07:09.474Z,71.38
2022-08-07T00:07:41.732Z,70.89
2022-08-07T00:08:14.438Z,70.91
2022-08-07T00:08:46.023Z,71.67
2022-08-07T00:09:20.891Z,71.63
2022-08-07T00:10:04.923Z,71.57
2022-08-07T00:10:47.630Z,71.30
2022-08-07T00:11:20.117Z,71.50
2022-08-07T00:12:01.600Z,71.34
2022-08-07T00:12:33.094Z,71.30
2022-08-07T00:13:17.489Z,71.94
2022-08-07T00:13:57.248Z,71.42
2022-08-07T00:14:31.756Z,71.47
2022-08-07T00:15:03.565Z,72.05
2022-08-07T00:15:36.049Z,71.66
2022-08-07T00:16:17.597Z,71.86
2022-08-07T00:17:01.771Z,71.35
2022-08-07T00:17:35.263Z,71.60
2022-08-07T00:18:08.995Z,71.59
2022-08-07T00:18:51.787Z,71.73
2022-08-07T00:19:26.074Z,72.16
2022-08-07T00:20:06.604Z,72.14
2022-08-07T00:20:39.845Z,72.29
2022-08-07T00:21:56.269Z,72.18
2022-08-07T00:22:03.472Z,72.00
2022-08-07T00:22:35.764Z,72.43
2022-08-07T00:23:07.935Z,72.19
2022-08-07T00:23:40.669Z,72.60
2022-08-07T00:24:12.133Z,72.34
2022-08-07T00:24:43.750Z,72.06
2022-08-07T00:25:17.265Z,71.95
2022-08-07T00:25:52.109Z,72.06
2022-08-07T00:26:58.908Z,72.06
2022-08-07T00:27:25.047Z,72.07
2022-08-07T00:28:07.236Z,72.62
2022-08-07T00:28:45.608Z,72.63
2022-08-07T00:29:19.302Z,72.13
2022-08-07T00:29:54.809Z,72.65
2022-08-07T00:30:28.640Z,72.34
2022-08-07T00:31:00.940Z,72.25
2022-08-07T00:31:38.092Z,72.19
2022-08-07T00:32:13.869Z,72.63
2022-08-07T00:32:49.727Z,72.25
2022-08-07T00:33:26.405Z,72.32
2022-08-07T00:34:49.253Z,72.40
2022-08-07T00:35:23.091Z,72.65
2022-08-07T00:35:55.911Z,72.86
2022-08-07T00:36:27.424Z,72.28
2022-08-07T00:37:00.720Z,72.32
2022-08-07T00:37:48.149Z,72.90
2022-08-07T00:38:31.244Z,72.72
2022-08-07T00:39:03.527Z,73.09
2022-08-07T00:39:35.493Z,73.01
2022-08-07T00:40:07.532Z,72.88
2022-08-07T00:41:04.220Z,73.15
2022-08-07T00:41:53.555Z,72.73
2022-08-07T00:42:33.980Z,72.72
2022-08-07T00:43:59.326Z,73.26
2022-08-07T00:44:03.429Z,73.23
2022-08-07T00:44:35.172Z,73.47
2022-08-07T00:45:16.117Z,73.58
2022-08-07T00:45:48.929Z,73.55
2022-08-07T00:46:22.422Z,73.75
2022-08-07T00:46:53.986Z,73.40
2022-08-07T00:48:07.993Z,73.32
2022-08-07T00:48:18.727Z,73.07
2022-08-07T00:48:56.503Z,73.60
2022-08-07T00:50:21.454Z,73.94
2022-08-07T00:50:46.630Z,73.58
2022-08-07T00:51:16.185Z,73.52
2022-08-07T00:51:58.515Z,73.37
2022-08-07T00:52:33.257Z,73.54
2022-08-07T00:53:09.250Z,72.89
2022-08-07T00:53:50.139Z,73.40
2022-08-07T00:54:26.545Z,73.35
2022-08-07T00:54:59.250Z,73.36
2022-08-07T00:56:00.774Z,73.44
2022-08-07T00:56:46.517Z,73.28
2022-08-07T00:57:23.564Z,73.24
2022-08-07T00:57:57.278Z,73.45
2022-08-07T00:58:28.712Z,73.56
2022-08-07T00:59:01.119Z,73.07
2022-08-07T00:59:35.726Z,73.57
2022-08-07T01:00:08.477Z,73.55
2022-08-07T01:00:40.051Z,72.90
2022-08-07T01:01:26.014Z,73.46
2022-08-07T01:01:57.918Z,73.42
2022-08-07T01:02:29.758Z,73.63
2022-08-07T01:03:01.463Z,73.65
2022-08-07T01:03:55.928Z,73.70
2022-08-07T01:04:25.572Z,73.92
2022-08-07T01:05:06.712Z,73.81
2022-08-07T01:05:53.716Z,73.62
2022-08-07T01:06:25.898Z,73.86
2022-08-07T01:06:57.614Z,73.88
2022-08-07T01:07:30.843Z,73.54
2022-08-07T01:08:03.067Z,73.69
2022-08-07T01:08:34.697Z,73.92
2022-08-07T01:09:06.213Z,73.44
2022-08-07T01:10:06.873Z,73.91
2022-08-07T01:10:30.943Z,73.74
2022-08-07T01:12:04.595Z,73.41
2022-08-07T01:12:09.388Z,73.64
2022-08-07T01:12:53.747Z,73.66
2022-08-07T01:13:26.771Z,73.46
2022-08-07T01:14:08.873Z,73.43
2022-08-07T01:14:40.486Z,73.88
2022-08-07T01:15:17.672Z,73.69
2022-08-07T01:16:05.223Z,73.40
2022-08-07T01:16:37.692Z,74.16
2022-08-07T01:17:10.700Z,74.65
2022-08-07T01:17:42.379Z,73.75
2022-08-07T01:18:17.497Z,74.29
2022-08-07T01:18:49.392Z,74.71
2022-08-07T01:19:22.932Z,74.50
2022-08-07T01:19:58.285Z,74.31
2022-08-07T01:20:35.183Z,73.95
2022-08-07T01:21:22.740Z,74.23
2022-08-07T01:21:56.165Z,73.99
2022-08-07T01:23:00.618Z,73.85
2022-08-07T01:23:43.756Z,73.69
2022-08-07T01:24:21.362Z,74.23
2022-08-07T01:24:53.896Z,74.02
2022-08-07T01:25:53.690Z,74.02
2022-08-07T01:26:22.361Z,74.15
2022-08-07T01:26:59.722Z,74.32
2022-08-07T01:27:32.394Z,74.37
2022-08-07T01:28:04.272Z,74.57
2022-08-07T01:28:36.815Z,74.34
2022-08-07T01:29:08.335Z,74.43
2022-08-07T01:29:40.305Z,74.29
2022-08-07T01:30:12.363Z,74.61
2022-08-07T01:30:51.378Z,74.73
2022-08-07T01:31:42.708Z,74.74
2022-08-07T01:32:17.942Z,74.31
2022-08-07T01:32:50.098Z,74.50
2022-08-07T01:33:22.640Z,74.35
2022-08-07T01:33:57.450Z,74.23
2022-08-07T01:34:35.136Z,74.39
2022-08-07T01:35:07.241Z,74.45
2022-08-07T01:36:33.533Z,74.35
2022-08-07T01:37:09.753Z,74.47
2022-08-07T01:37:41.977Z,74.59
2022-08-07T01:38:13.729Z,74.64
2022-08-07T01:38:57.016Z,74.39
2022-08-07T01:39:40.603Z,75.01
2022-08-07T01:40:21.492Z,74.70
2022-08-07T01:40:58.433Z,75.27
2022-08-07T01:41:30.114Z,74.97
2022-08-07T01:42:37.844Z,75.36
2022-08-07T01:43:11.168Z,75.38
2022-08-07T01:43:42.920Z,75.12
2022-08-07T01:44:15.358Z,74.88
2022-08-07T01:44:48.186Z,75.13
2022-08-07T01:45:23.073Z,74.83
2022-08-07T01:46:12.312Z,75.25
2022-08-07T01:48:20.088Z,74.57
2022-08-07T01:48:21.064Z,75.27
2022-08-07T01:48:53.215Z,74.85
2022-08-07T01:49:24.615Z,75.07
2022-08-07T01:49:57.749Z,74.69
2022-08-07T01:50:33.001Z,74.84
2022-08-07T01:52:01.986Z,74.78
2022-08-07T01:52:04.896Z,75.39
2022-08-07T01:52:39.042Z,75.65
2022-08-07T01:54:06.248Z,75.42
2022-08-07T01:54:33.163Z,75.26
2022-08-07T01:55:10.846Z,75.20
2022-08-07T01:55:58.352Z,75.23
2022-08-07T01:56:55.381Z,75.13
2022-08-07T01:58:06.788Z,74.55
2022-08-07T01:58:29.986Z,74.82
2022-08-07T01:59:15.709Z,74.76
2022-08-07T01:59:54.617Z,75.00
2022-08-07T02:00:30.782Z,74.97
2022-08-07T02:02:10.404Z,75.05
2022-08-07T02:03:19.081Z,75.71
2022-08-07T02:03:53.469Z,75.48
2022-08-07T02:04:32.958Z,75.27
2022-08-07T02:05:09.158Z,75.44
2022-08-07T02:06:32.004Z,76.29
2022-08-07T02:07:04.523Z,75.53
2022-08-07T02:07:50.184Z,75.97
2022-08-07T02:08:25.860Z,75.98
2022-08-07T02:09:00.315Z,75.67
2022-08-07T02:09:43.639Z,75.86
2022-08-07T02:10:26.708Z,75.96
2022-08-07T02:10:59.871Z,75.67
2022-08-07T02:12:04.279Z,75.74
2022-08-07T02:12:31.130Z,75.60
2022-08-07T02:13:04.517Z,75.70
2022-08-07T02:13:58.193Z,76.27
2022-08-07T02:14:40.703Z,75.60
2022-08-07T02:15:14.251Z,76.25
2022-08-07T02:15:49.877Z,75.61
2022-08-07T02:16:28.594Z,75.76
2022-08-07T02:17:06.173Z,75.28
2022-08-07T02:17:39.451Z,75.03
2022-08-07T02:18:13.345Z,75.79
2022-08-07T02:18:47.231Z,75.41
2022-08-07T02:20:04.739Z,75.50
2022-08-07T02:20:19.803Z,75.68
2022-08-07T02:20:57.605Z,75.39
2022-08-07T02:21:55.423Z,75.60
2022-08-07T02:22:30.518Z,75.05
2022-08-07T02:23:23.981Z,75.29
2022-08-07T02:23:58.167Z,75.43
2022-08-07T02:24:33.936Z,75.54
2022-08-07T02:25:17.480Z,75.58
2022-08-07T02:26:31.411Z,75.05
2022-08-07T02:26:42.252Z,75.70
2022-08-07T02:27:17.116Z,75.28
2022-08-07T02:27:52.211Z,75.31
2022-08-07T02:28:28.744Z,75.29
2022-08-07T02:29:02.128Z,75.28
2022-08-07T02:29:43.373Z,74.98
2022-08-07T02:30:20.823Z,75.85
2022-08-07T02:30:53.616Z,75.27
2022-08-07T02:31:28.755Z,75.73
2022-08-07T02:32:02.415Z,75.37
2022-08-07T02:32:39.625Z,75.89
2022-08-07T02:33:41.900Z,75.63
2022-08-07T02:34:21.338Z,75.78
2022-08-07T02:34:57.922Z,75.98
2022-08-07T02:36:29.122Z,75.69
2022-08-07T02:36:30.568Z,75.69
2022-08-07T02:37:08.318Z,75.76
2022-08-07T02:38:35.415Z,75.82
2022-08-07T02:39:42.964Z,76.41
2022-08-07T02:40:31.037Z,75.50
2022-08-07T02:41:08.003Z,75.80
2022-08-07T02:41:47.334Z,76.05
2022-08-07T02:42:26.361Z,76.36
2022-08-07T02:42:59.189Z,75.91
2022-08-07T02:43:31.496Z,76.45
2022-08-07T02:44:05.094Z,76.56
2022-08-07T02:44:37.768Z,76.71
2022-08-07T02:45:58.787Z,76.75
2022-08-07T02:46:09.639Z,76.62
2022-08-07T02:46:46.666Z,76.22
2022-08-07T02:47:23.913Z,76.28
2022-08-07T02:47:55.726Z,76.57
2022-08-07T02:48:31.048Z,76.05
2022-08-07T02:49:04.092Z,76.33
2022-08-07T02:49:58.754Z,76.35
2022-08-07T02:50:30.864Z,76.20
2022-08-07T02:51:07.641Z,75.89
2022-08-07T02:52:03.235Z,76.61
2022-08-07T02:52:40.047Z,75.99
2022-08-07T02:53:17.959Z,76.34
2022-08-07T02:53:54.199Z,76.25
2022-08-07T02:54:30.481Z,76.27
2022-08-07T02:55:27.376Z,76.50
2022-08-07T02:56:06.505Z,76.55
2022-08-07T02:57:39.912Z,76.61
2022-08-07T02:58:21.615Z,76.43
2022-08-07T02:58:55.389Z,76.18
2022-08-07T02:59:28.740Z,76.42
2022-08-07T03:00:04.982Z,76.35
2022-08-07T03:00:39.283Z,76.16
2022-08-07T03:01:18.514Z,76.53
2022-08-07T03:01:52.136Z,76.32
2022-08-07T03:02:26.539Z,76.64
2022-08-07T03:03:00.004Z,76.51
2022-08-07T03:03:49.215Z,76.71
2022-08-07T03:04:23.521Z,77.02
2022-08-07T03:04:56.901Z,76.85
2022-08-07T03:05:35.702Z,77.17
2022-08-07T03:06:16.647Z,76.80
2022-08-07T03:06:59.862Z,76.98
2022-08-07T03:08:04.538Z,77.06
2022-08-07T03:08:33.490Z,76.74
2022-08-07T03:09:11.147Z,76.72
2022-08-07T03:10:33.993Z,76.92
2022-08-07T03:11:06.315Z,76.21
2022-08-07T03:11:51.962Z,76.55
2022-08-07T03:12:30.810Z,76.91
2022-08-07T03:13:03.304Z,77.52
2022-08-07T03:13:38.741Z,77.07
2022-08-07T03:14:11.427Z,77.56
2022-08-07T03:14:48.556Z,77.47
2022-08-07T03:15:30.293Z,77.71
2022-08-07T03:16:16.354Z,77.38
2022-08-07T03:16:50.181Z,77.50
2022-08-07T03:17:24.262Z,77.60
2022-08-07T03:17:57.607Z,77.23
2022-08-07T03:18:35.084Z,77.11
2022-08-07T03:19:08.352Z,77.10
2022-08-07T03:19:41.402Z,77.59
2022-08-07T03:20:14.194Z,77.28
2022-08-07T03:20:46.839Z,76.90
2022-08-07T03:21:19.188Z,76.78
2022-08-07T03:21:52.511Z,76.61
2022-08-07T03:22:30.206Z,76.76
2022-08-07T03:23:03.009Z,76.57
2022-08-07T03:24:19.719Z,76.52
2022-08-07T03:24:50.732Z,76.53
2022-08-07T03:25:23.724Z,76.56
2022-08-07T03:25:58.483Z,76.39
2022-08-07T03:26:33.310Z,76.81
2022-08-07T03:27:08.974Z,76.78
2022-08-07T03:27:59.505Z,76.49
2022-08-07T03:28:37.516Z,76.45
2022-08-07T03:29:14.750Z,76.34
2022-08-07T03:29:51.109Z,76.74
2022-08-07T03:30:24.293Z,76.36
2022-08-07T03:31:16.914Z,76.60
2022-08-07T03:31:51.228Z,76.45
2022-08-07T03:32:33.353Z,76.43
2022-08-07T03:33:08.025Z,76.64
2022-08-07T03:33:44.316Z,76.77
2022-08-07T03:34:22.334Z,76.32
2022-08-07T03:35:16.968Z,76.47
2022-08-07T03:35:50.813Z,77.23
2022-08-07T03:36:26.549Z,77.34
2022-08-07T03:37:12.127Z,77.20
2022-08-07T03:37:53.934Z,77.03
2022-08-07T03:38:29.409Z,77.41
2022-08-07T03:39:08.937Z,77.28
2022-08-07T03:39:58.984Z,77.36
2022-08-07T03:40:36.362Z,76.79
2022-08-07T03:41:10.461Z,77.12
2022-08-07T03:41:47.553Z,77.03
2022-08-07T03:42:22.994Z,77.15
2022-08-07T03:42:55.481Z,77.36
2022-08-07T03:43:32.398Z,76.94
2022-08-07T03:44:05.251Z,77.50
2022-08-07T03:44:38.435Z,77.00
2022-08-07T03:45:29.936Z,77.01
2022-08-07T03:46:03.582Z,77.43
2022-08-07T03:47:11.323Z,77.53
2022-08-07T03:47:47.992Z,77.23
2022-08-07T03:48:23.075Z,77.26
2022-08-07T03:49:02.743Z,77.81
2022-08-07T03:49:35.860Z,78.08
2022-08-07T03:50:07.681Z,77.88
2022-08-07T03:50:56.146Z,78.00
2022-08-07T03:51:47.794Z,77.65
2022-08-07T03:52:27.439Z,77.88
2022-08-07T03:53:00.174Z,77.69
2022-08-07T03:54:05.949Z,77.80
2022-08-07T03:54:35.954Z,77.73
2022-08-07T03:55:14.732Z,77.91
2022-08-07T03:55:58.027Z,77.61
2022-08-07T03:56:39.077Z,77.88
2022-08-07T03:58:34.046Z,77.95
2022-08-07T03:59:04.641Z,78.13
2022-08-07T03:59:16.775Z,77.88
2022-08-07T04:00:02.733Z,78.16
2022-08-07T04:00:37.229Z,77.98
2022-08-07T04:01:14.495Z,78.06
2022-08-07T04:01:47.156Z,78.16
2022-08-07T04:02:18.688Z,78.06
2022-08-07T04:02:50.647Z,78.27
2022-08-07T04:03:28.402Z,78.05
2022-08-07T04:04:20.398Z,78.12
2022-08-07T04:04:52.112Z,77.95
2022-08-07T04:05:23.994Z,77.96
2022-08-07T04:06:00.600Z,77.59
2022-08-07T04:06:37.634Z,77.80
2022-08-07T04:07:16.695Z,77.91
2022-08-07T04:07:50.469Z,77.89
2022-08-07T04:08:23.274Z,77.91
2022-08-07T04:08:56.928Z,77.84
2022-08-07T04:09:45.522Z,78.12
2022-08-07T04:10:20.849Z,78.04
2022-08-07T04:12:21.174Z,78.06
2022-08-07T04:12:21.467Z,78.48
2022-08-07T04:12:42.031Z,78.26
2022-08-07T04:13:15.466Z,77.79
2022-08-07T04:14:14.030Z,78.07
2022-08-07T04:14:43.912Z,78.07
2022-08-07T04:15:18.996Z,78.00
2022-08-07T04:15:50.783Z,77.87
2022-08-07T04:16:31.435Z,77.89
2022-08-07T04:17:04.141Z,77.39
2022-08-07T04:18:31.988Z,77.55
2022-08-07T04:18:59.655Z,77.62
2022-08-07T04:19:51.246Z,77.48
2022-08-07T04:20:25.316Z,77.35
2022-08-07T04:21:16.618Z,77.36
2022-08-07T04:22:14.451Z,77.31
2022-08-07T04:22:53.548Z,77.65
2022-08-07T04:23:43.962Z,77.45
2022-08-07T04:24:33.932Z,77.41
2022-08-07T04:25:12.585Z,77.79
2022-08-07T04:25:45.392Z,77.77
2022-08-07T04:26:21.976Z,78.01
2022-08-07T04:26:53.636Z,77.83
2022-08-07T04:27:26.570Z,78.09
2022-08-07T04:28:10.323Z,77.77
2022-08-07T04:28:44.995Z,77.49
2022-08-07T04:29:16.454Z,77.50
2022-08-07T04:29:58.601Z,77.68
2022-08-07T04:30:35.553Z,77.49
2022-08-07T04:31:19.622Z,77.52
2022-08-07T04:32:02.926Z,77.56
2022-08-07T04:32:44.980Z,77.49
2022-08-07T04:33:19.657Z,77.50
2022-08-07T04:33:56.671Z,77.48
2022-08-07T04:34:33.097Z,77.59
2022-08-07T04:35:07.314Z,77.50
2022-08-07T04:35:50.520Z,77.83
2022-08-07T04:36:26.251Z,77.99
2022-08-07T04:36:58.014Z,77.69
2022-08-07T04:38:00.855Z,78.35
2022-08-07T04:38:23.132Z,77.92
2022-08-07T04:38:54.661Z,78.16
2022-08-07T04:39:26.413Z,78.19
2022-08-07T04:39:58.142Z,78.46
2022-08-07T04:40:32.448Z,78.71
2022-08-07T04:41:04.633Z,78.24
2022-08-07T04:41:36.960Z,78.59
2022-08-07T04:42:08.484Z,78.02
2022-08-07T04:42:39.883Z,78.37
2022-08-07T04:43:17.649Z,78.24
2022-08-07T04:44:18.372Z,78.41
2022-08-07T04:44:54.700Z,78.12
2022-08-07T04:45:57.733Z,78.13
2022-08-07T04:46:42.794Z,78.44
2022-08-07T04:47:57.017Z,77.84
2022-08-07T04:48:55.441Z,78.10
2022-08-07T04:49:47.505Z,78.48
2022-08-07T04:50:37.451Z,78.31
2022-08-07T04:51:41.833Z,78.48
2022-08-07T04:52:36.739Z,78.48
2022-08-07T04:53:27.780Z,78.76
2022-08-07T04:54:30.171Z,78.74
2022-08-07T04:55:15.648Z,79.07
2022-08-07T04:58:13.926Z,78.98
2022-08-07T04:58:16.755Z,78.80
2022-08-07T04:58:33.602Z,78.79
2022-08-07T05:00:12.687Z,78.83
2022-08-07T05:00:50.051Z,78.86
2022-08-07T05:01:37.287Z,79.15
2022-08-07T05:02:35.442Z,79.04
2022-08-07T05:04:47.175Z,79.34
2022-08-07T05:05:52.061Z,79.31
2022-08-07T05:06:43.292Z,78.86
2022-08-07T05:07:36.696Z,79.42
2022-08-07T05:09:00.047Z,79.48
2022-08-07T05:09:46.063Z,78.79
2022-08-07T05:10:49.251Z,79.24
2022-08-07T05:11:56.799Z,78.87
2022-08-07T05:12:38.163Z,79.07
2022-08-07T05:14:53.755Z,79.32
2022-08-07T05:14:54.052Z,79.24
2022-08-07T05:15:38.797Z,78.99
2022-08-07T05:16:14.809Z,78.84
2022-08-07T05:16:52.918Z,78.80
2022-08-07T05:17:52.933Z,79.01
2022-08-07T05:18:32.512Z,78.65
2022-08-07T05:19:10.526Z,78.71
2022-08-07T05:19:46.903Z,79.33
2022-08-07T05:20:25.688Z,78.86
2022-08-07T05:21:00.452Z,79.08
2022-08-07T05:22:00.835Z,78.85
2022-08-07T05:22:27.645Z,79.33
2022-08-07T05:23:06.854Z,79.17
2022-08-07T05:23:53.215Z,79.65
2022-08-07T05:24:30.421Z,79.15
2022-08-07T05:25:26.368Z,78.76
2022-08-07T05:26:18.823Z,79.30
2022-08-07T05:26:58.715Z,79.19
2022-08-07T05:28:23.276Z,79.28
2022-08-07T05:29:04.250Z,79.27
2022-08-07T05:29:51.214Z,79.73
2022-08-07T05:30:30.270Z,79.78
2022-08-07T05:31:06.468Z,80.00
2022-08-07T05:31:40.467Z,80.17
2022-08-07T05:32:24.732Z,80.27
2022-08-07T05:32:58.399Z,79.66
2022-08-07T05:33:35.520Z,80.02
2022-08-07T05:34:12.242Z,80.20
2022-08-07T05:34:44.088Z,80.23
2022-08-07T05:35:23.484Z,79.81
2022-08-07T05:36:06.904Z,79.92
2022-08-07T05:36:49.029Z,79.73
2022-08-07T05:37:25.625Z,80.15
2022-08-07T05:38:08.624Z,80.07
2022-08-07T05:39:01.498Z,79.55
2022-08-07T05:40:07.140Z,79.75
2022-08-07T05:40:51.515Z,79.86
2022-08-07T05:41:23.811Z,79.74
2022-08-07T05:42:15.479Z,78.74
2022-08-07T05:43:05.508Z,79.17
2022-08-07T05:44:07.780Z,79.48
2022-08-07T05:45:14.546Z,79.20
2022-08-07T05:45:49.787Z,78.88
2022-08-07T05:46:29.518Z,79.24
2022-08-07T05:47:01.750Z,78.93
2022-08-07T05:48:40.793Z,79.04
2022-08-07T05:49:40.430Z,79.50
2022-08-07T05:50:12.956Z,79.82
2022-08-07T05:50:45.202Z,78.84
2022-08-07T05:51:19.404Z,79.07
2022-08-07T05:51:52.572Z,79.52
2022-08-07T05:52:32.169Z,79.40
2022-08-07T05:54:12.422Z,78.80
2022-08-07T05:55:25.428Z,79.27
2022-08-07T05:56:19.486Z,78.50
2022-08-07T05:56:53.736Z,78.33
2022-08-07T05:57:30.119Z,77.99
2022-08-07T05:58:06.679Z,78.25
2022-08-07T05:58:49.310Z,79.27
2022-08-07T05:59:25.463Z,78.27
2022-08-07T06:00:19.179Z,77.63
2022-08-07T06:00:53.207Z,77.84
2022-08-07T06:01:27.402Z,78.34
2022-08-07T06:02:08.284Z,77.76
2022-08-07T06:02:45.038Z,77.41
2022-08-07T06:03:19.974Z,78.15
2022-08-07T06:04:15.295Z,78.24
2022-08-07T06:04:55.000Z,78.32
2022-08-07T06:05:28.731Z,78.26
2022-08-07T06:06:01.935Z,77.53
2022-08-07T06:06:34.761Z,78.29
2022-08-07T06:07:07.286Z,77.47
2022-08-07T06:08:13.960Z,77.77
2022-08-07T06:08:32.269Z,76.94
2022-08-07T06:09:05.175Z,77.57
2022-08-07T06:10:04.229Z,76.71
2022-08-07T06:10:29.270Z,77.16
2022-08-07T06:11:00.903Z,76.73
2022-08-07T06:11:35.769Z,76.43
2022-08-07T06:12:07.919Z,76.56
2022-08-07T06:12:39.324Z,77.13
2022-08-07T06:13:13.305Z,77.38
2022-08-07T06:14:11.478Z,76.03
2022-08-07T06:14:38.167Z,76.37
2022-08-07T06:15:16.097Z,76.60
2022-08-07T06:15:49.959Z,76.49
2022-08-07T06:16:23.388Z,76.42
2022-08-07T06:17:01.686Z,75.93
2022-08-07T06:17:38.916Z,75.92
2022-08-07T06:18:13.936Z,75.67
2022-08-07T06:18:51.540Z,75.33
2022-08-07T06:19:52.070Z,75.75
2022-08-07T06:20:32.199Z,75.67
2022-08-07T06:22:14.889Z,76.00
2022-08-07T06:22:14.891Z,76.23
2022-08-07T06:23:02.066Z,76.10
2022-08-07T06:24:38.657Z,76.33
2022-08-07T06:24:58.428Z,76.38
2022-08-07T06:25:34.884Z,75.71
2022-08-07T06:26:12.981Z,76.22
2022-08-07T06:26:44.521Z,76.00
2022-08-07T06:27:44.132Z,76.44
2022-08-07T06:28:17.379Z,75.43
2022-08-07T06:29:01.198Z,76.19
2022-08-07T06:29:34.114Z,75.99
2022-08-07T06:30:06.144Z,75.19
2022-08-07T06:30:56.379Z,75.35
2022-08-07T06:32:18.705Z,75.07
2022-08-07T06:32:50.120Z,75.65
2022-08-07T06:33:22.867Z,75.77
2022-08-07T06:33:54.717Z,76.53
2022-08-07T06:34:28.075Z,75.96
2022-08-07T06:35:01.171Z,75.89
2022-08-07T06:36:35.446Z,75.74
2022-08-07T06:37:07.006Z,75.77
2022-08-07T06:37:44.342Z,75.50
2022-08-07T06:38:20.031Z,75.22
2022-08-07T06:38:59.393Z,74.84
2022-08-07T06:40:16.943Z,74.71
2022-08-07T06:40:51.236Z,73.42
2022-08-07T06:42:02.628Z,73.38
2022-08-07T06:42:26.604Z,73.41
2022-08-07T06:43:21.412Z,73.58
2022-08-07T06:43:59.393Z,73.81
2022-08-07T06:44:36.941Z,74.34
2022-08-07T06:45:17.885Z,74.04
2022-08-07T06:46:39.955Z,73.54
2022-08-07T06:47:15.342Z,73.51
2022-08-07T06:47:57.071Z,73.32
2022-08-07T06:48:30.317Z,72.97
2022-08-07T06:49:04.427Z,73.23
2022-08-07T06:49:36.277Z,73.69
2022-08-07T06:50:24.470Z,73.26
2022-08-07T06:51:00.119Z,74.64
2022-08-07T06:51:49.610Z,73.26
2022-08-07T06:52:31.928Z,72.94
2022-08-07T06:53:49.226Z,72.87
2022-08-07T06:55:29.815Z,73.26
2022-08-07T06:55:31.349Z,72.99
2022-08-07T06:55:59.891Z,72.64
2022-08-07T06:56:48.471Z,72.82
2022-08-07T06:57:21.787Z,73.12
2022-08-07T06:58:13.799Z,72.73
2022-08-07T07:00:11.805Z,72.58
2022-08-07T07:00:12.871Z,72.99
2022-08-07T07:00:38.217Z,72.20
2022-08-07T07:01:12.236Z,72.80
2022-08-07T07:01:50.986Z,70.79
2022-08-07T07:02:48.345Z,71.35
2022-08-07T07:03:39.872Z,71.54
2022-08-07T07:04:28.366Z,72.01
2022-08-07T07:05:04.815Z,71.35
2022-08-07T07:06:02.532Z,71.07
2022-08-07T07:06:28.507Z,71.31
2022-08-07T07:07:02.421Z,71.95
2022-08-07T07:07:59.378Z,72.51
2022-08-07T07:08:39.755Z,71.81
2022-08-07T07:09:20.511Z,71.84
2022-08-07T07:09:54.822Z,71.82
2022-08-07T07:10:31.396Z,72.02
2022-08-07T07:11:12.983Z,71.16
2022-08-07T07:12:08.714Z,71.33
2022-08-07T07:12:53.764Z,70.79
2022-08-07T07:13:55.690Z,70.46
2022-08-07T07:14:32.625Z,71.05
2022-08-07T07:15:35.782Z,70.42
2022-08-07T07:16:14.383Z,70.56
2022-08-07T07:16:53.609Z,70.27
2022-08-07T07:17:50.663Z,69.72
2022-08-07T07:18:37.683Z,69.49
2022-08-07T07:19:55.176Z,69.99
2022-08-07T07:20:35.749Z,70.30
2022-08-07T07:22:04.166Z,69.87
2022-08-07T07:24:05.526Z,69.92
2022-08-07T07:24:08.868Z,69.51
2022-08-07T07:24:24.747Z,69.59
2022-08-07T07:25:13.928Z,69.79
2022-08-07T07:26:34.428Z,69.46
2022-08-07T07:26:49.730Z,68.25
2022-08-07T07:27:35.713Z,67.97
2022-08-07T07:28:29.948Z,68.18
2022-08-07T07:29:38.413Z,67.22
2022-08-07T07:30:13.381Z,67.70
2022-08-07T07:31:10.488Z,67.21
2022-08-07T07:31:47.002Z,67.23
2022-08-07T07:32:20.918Z,67.73
2022-08-07T07:32:54.901Z,66.90
2022-08-07T07:33:29.893Z,66.68
2022-08-07T07:34:06.673Z,66.49
2022-08-07T07:34:42.519Z,66.13
2022-08-07T07:35:15.157Z,65.85
2022-08-07T07:36:04.122Z,66.13
2022-08-07T07:36:40.479Z,66.22
2022-08-07T07:37:45.192Z,64.72
2022-08-07T07:38:08.612Z,65.41
2022-08-07T07:38:43.519Z,65.54
2022-08-07T07:39:17.713Z,65.66
2022-08-07T07:41:09.193Z,63.27
2022-08-07T07:42:01.805Z,63.67
2022-08-07T07:42:35.847Z,64.58
2022-08-07T07:43:15.367Z,63.72
2022-08-07T07:44:16.899Z,62.90
2022-08-07T07:44:45.725Z,63.31
2022-08-07T07:46:37.999Z,63.87
2022-08-07T07:46:39.905Z,64.17
2022-08-07T07:47:14.259Z,64.80
2022-08-07T07:47:57.638Z,65.63
2022-08-07T07:48:35.980Z,64.73
2022-08-07T07:50:34.008Z,64.41
2022-08-07T07:50:54.073Z,64.16
2022-08-07T07:51:27.675Z,64.09
2022-08-07T07:52:01.112Z,64.31
2022-08-07T07:52:36.454Z,62.93
2022-08-07T07:53:20.551Z,62.16
2022-08-07T07:53:58.373Z,61.92
2022-08-07T07:54:31.610Z,61.66
2022-08-07T07:56:00.900Z,61.81
2022-08-07T07:56:35.323Z,62.48
2022-08-07T07:57:08.887Z,62.34
2022-08-07T07:57:52.132Z,62.58
2022-08-07T07:58:29.245Z,63.67
2022-08-07T07:59:23.784Z,63.71
2022-08-07T08:00:14.993Z,63.20
2022-08-07T08:02:01.610Z,63.28
2022-08-07T08:02:33.748Z,62.09
2022-08-07T08:03:09.240Z,62.48
2022-08-07T08:04:09.878Z,62.51
2022-08-07T08:05:00.147Z,61.83
2022-08-07T08:05:54.958Z,60.84
2022-08-07T08:06:27.924Z,61.40
2022-08-07T08:07:02.832Z,61.54
2022-08-07T08:07:42.341Z,62.16
2022-08-07T08:08:36.870Z,62.44
2022-08-07T08:09:09.713Z,61.96
2022-08-07T08:09:52.151Z,61.48
2022-08-07T08:10:38.969Z,60.99
2022-08-07T08:11:16.489Z,58.84
2022-08-07T08:12:02.073Z,59.17
2022-08-07T08:12:52.242Z,60.22
2022-08-07T08:13:33.216Z,57.96
2022-08-07T08:14:08.343Z,58.42
2022-08-07T08:14:42.300Z,59.24
2022-08-07T08:15:13.806Z,58.52
2022-08-07T08:16:42.520Z,59.69
2022-08-07T08:17:57.733Z,60.72
2022-08-07T08:18:18.111Z,59.43
2022-08-07T08:18:36.693Z,59.02
2022-08-07T08:19:18.013Z,60.51
2022-08-07T08:20:31.970Z,60.75
2022-08-07T08:21:05.028Z,60.32
2022-08-07T08:22:03.403Z,59.90
2022-08-07T08:23:00.109Z,59.43
2022-08-07T08:23:52.772Z,59.46
2022-08-07T08:24:47.667Z,59.07
2022-08-07T08:26:07.370Z,59.90
2022-08-07T08:26:58.851Z,59.12
2022-08-07T08:27:39.790Z,59.59
2022-08-07T08:28:37.290Z,59.43
2022-08-07T08:29:15.021Z,59.53
2022-08-07T08:29:54.562Z,60.02
2022-08-07T08:30:51.068Z,60.34
2022-08-07T08:31:30.111Z,58.59
2022-08-07T08:32:25.123Z,58.34
2022-08-07T08:33:02.884Z,58.27
2022-08-07T08:33:36.995Z,58.66
2022-08-07T08:34:12.554Z,57.99
2022-08-07T08:35:00.076Z,58.50
2022-08-07T08:35:39.480Z,56.56
2022-08-07T08:36:33.867Z,57.94
2022-08-07T08:37:09.946Z,57.38
2022-08-07T08:38:04.743Z,57.63
2022-08-07T08:38:41.325Z,56.84
2022-08-07T08:39:13.341Z,57.42
2022-08-07T08:39:54.885Z,56.96
2022-08-07T08:40:35.900Z,56.44
2022-08-07T08:41:17.347Z,57.50
2022-08-07T08:42:04.131Z,57.18
2022-08-07T08:42:45.010Z,56.86
2022-08-07T08:44:57.894Z,57.01
2022-08-07T08:45:41.830Z,57.16
2022-08-07T08:46:41.462Z,55.04
2022-08-07T08:47:52.387Z,56.66
2022-08-07T08:48:35.786Z,56.30
2022-08-07T08:49:46.571Z,56.04
2022-08-07T08:50:52.317Z,56.57
2022-08-07T08:52:01.009Z,57.82
2022-08-07T08:52:40.989Z,57.95
2022-08-07T08:53:34.746Z,55.99
2022-08-07T08:54:24.911Z,56.69
2022-08-07T08:55:04.610Z,56.74
2022-08-07T08:55:55.211Z,57.02
2022-08-07T08:56:47.091Z,55.53
2022-08-07T08:57:27.757Z,55.54
2022-08-07T08:58:24.734Z,54.25
2022-08-07T08:59:12.922Z,55.36
2022-08-07T09:00:00.630Z,56.32
2022-08-07T09:00:42.667Z,54.84
2022-08-07T09:01:24.703Z,54.57
2022-08-07T09:02:16.634Z,55.00
2022-08-07T09:03:18.937Z,54.71
2022-08-07T09:04:33.528Z,55.47
2022-08-07T09:06:11.565Z,54.67
2022-08-07T09:06:55.639Z,53.70
2022-08-07T09:07:46.210Z,54.60
2022-08-07T09:08:35.780Z,55.06
2022-08-07T09:09:56.673Z,54.73
2022-08-07T09:10:51.867Z,54.51
2022-08-07T09:11:51.208Z,54.06
2022-08-07T09:12:53.596Z,54.23
2022-08-07T09:13:38.298Z,52.87
2022-08-07T09:14:35.536Z,53.78
2022-08-07T09:16:24.188Z,53.18
2022-08-07T09:17:15.912Z,52.93
2022-08-07T09:18:27.840Z,53.41
2022-08-07T09:19:57.320Z,52.25
2022-08-07T09:21:01.057Z,53.49